sensor_id;sensor_type;location;lat;lon;timestamp;P1;durP1;ratioP1;P2;durP2;ratioP2
77870;SDS011;67067;46.850;7.578;2023-02-21T00:00:09;13.52;;;7.57;;
77870;SDS011;67067;46.850;7.578;2023-02-21T00:01:28;13.32;;;7.22;;
77870;SDS011;67067;46.850;7.578;2023-02-21T00:02:47;17.65;;;7.25;;
77870;SDS011;67067;46.850;7.578;2023-02-21T00:04:06;14.27;;;7.20;;
77870;SDS011;67067;46.850;7.578;2023-02-21T00:05:25;12.60;;;7.15;;
77870;SDS011;67067;46.850;7.578;2023-02-21T00:06:44;15.15;;;6.90;;
77870;SDS011;67067;46.850;7.578;2023-02-21T00:08:03;15.27;;;6.72;;
77870;SDS011;67067;46.850;7.578;2023-02-21T00:09:23;15.07;;;7.03;;
77870;SDS011;67067;46.850;7.578;2023-02-21T00:10:41;14.82;;;6.82;;
77870;SDS011;67067;46.850;7.578;2023-02-21T00:12:03;17.30;;;7.35;;
77870;SDS011;67067;46.850;7.578;2023-02-21T00:13:22;14.25;;;7.03;;
77870;SDS011;67067;46.850;7.578;2023-02-21T00:14:41;12.55;;;7.32;;
77870;SDS011;67067;46.850;7.578;2023-02-21T00:16:01;13.63;;;6.97;;
77870;SDS011;67067;46.850;7.578;2023-02-21T00:17:22;17.05;;;7.18;;
77870;SDS011;67067;46.850;7.578;2023-02-21T00:18:41;18.17;;;7.65;;
77870;SDS011;67067;46.850;7.578;2023-02-21T00:20:00;13.35;;;6.43;;
77870;SDS011;67067;46.850;7.578;2023-02-21T00:21:19;16.08;;;7.10;;
77870;SDS011;67067;46.850;7.578;2023-02-21T00:22:39;15.82;;;7.13;;
77870;SDS011;67067;46.850;7.578;2023-02-21T00:24:00;16.33;;;7.37;;
77870;SDS011;67067;46.850;7.578;2023-02-21T00:25:20;15.15;;;6.63;;
77870;SDS011;67067;46.850;7.578;2023-02-21T00:26:38;12.90;;;6.82;;
77870;SDS011;67067;46.850;7.578;2023-02-21T00:27:59;19.83;;;7.82;;
77870;SDS011;67067;46.850;7.578;2023-02-21T00:29:19;15.88;;;7.70;;
77870;SDS011;67067;46.850;7.578;2023-02-21T00:30:39;16.70;;;8.43;;
77870;SDS011;67067;46.850;7.578;2023-02-21T00:31:58;15.13;;;7.10;;
77870;SDS011;67067;46.850;7.578;2023-02-21T00:33:17;16.23;;;7.40;;
77870;SDS011;67067;46.850;7.578;2023-02-21T00:34:38;15.32;;;7.13;;
77870;SDS011;67067;46.850;7.578;2023-02-21T00:36:00;16.83;;;7.40;;
77870;SDS011;67067;46.850;7.578;2023-02-21T00:37:19;15.52;;;7.05;;
77870;SDS011;67067;46.850;7.578;2023-02-21T00:38:37;17.70;;;8.38;;
77870;SDS011;67067;46.850;7.578;2023-02-21T00:39:57;18.70;;;8.40;;
77870;SDS011;67067;46.850;7.578;2023-02-21T00:41:15;15.52;;;7.63;;
77870;SDS011;67067;46.850;7.578;2023-02-21T00:42:37;14.88;;;7.47;;
77870;SDS011;67067;46.850;7.578;2023-02-21T00:43:56;14.82;;;7.28;;
77870;SDS011;67067;46.850;7.578;2023-02-21T00:45:14;14.30;;;6.93;;
77870;SDS011;67067;46.850;7.578;2023-02-21T00:46:34;15.95;;;6.90;;
77870;SDS011;67067;46.850;7.578;2023-02-21T00:47:53;14.93;;;6.60;;
77870;SDS011;67067;46.850;7.578;2023-02-21T00:49:14;11.98;;;6.68;;
77870;SDS011;67067;46.850;7.578;2023-02-21T00:50:33;14.57;;;6.72;;
77870;SDS011;67067;46.850;7.578;2023-02-21T00:51:53;13.07;;;6.10;;
77870;SDS011;67067;46.850;7.578;2023-02-21T00:53:12;13.57;;;6.55;;
77870;SDS011;67067;46.850;7.578;2023-02-21T00:54:32;14.45;;;6.78;;
77870;SDS011;67067;46.850;7.578;2023-02-21T00:55:51;16.15;;;7.22;;
77870;SDS011;67067;46.850;7.578;2023-02-21T00:57:11;17.83;;;7.93;;
77870;SDS011;67067;46.850;7.578;2023-02-21T00:58:30;15.95;;;7.72;;
77870;SDS011;67067;46.850;7.578;2023-02-21T00:59:49;16.95;;;7.75;;
77870;SDS011;67067;46.850;7.578;2023-02-21T01:01:08;17.48;;;8.10;;
77870;SDS011;67067;46.850;7.578;2023-02-21T01:02:27;15.43;;;8.05;;
77870;SDS011;67067;46.850;7.578;2023-02-21T01:03:46;16.13;;;7.88;;
77870;SDS011;67067;46.850;7.578;2023-02-21T01:05:05;14.32;;;6.80;;
77870;SDS011;67067;46.850;7.578;2023-02-21T01:06:24;19.15;;;7.38;;
77870;SDS011;67067;46.850;7.578;2023-02-21T01:07:43;16.73;;;7.32;;
77870;SDS011;67067;46.850;7.578;2023-02-21T01:09:04;14.68;;;6.70;;
77870;SDS011;67067;46.850;7.578;2023-02-21T01:10:23;18.02;;;7.65;;
77870;SDS011;67067;46.850;7.578;2023-02-21T01:11:43;14.02;;;7.55;;
77870;SDS011;67067;46.850;7.578;2023-02-21T01:13:01;18.38;;;7.40;;
77870;SDS011;67067;46.850;7.578;2023-02-21T01:14:24;17.42;;;8.23;;
77870;SDS011;67067;46.850;7.578;2023-02-21T01:15:43;15.77;;;7.72;;
77870;SDS011;67067;46.850;7.578;2023-02-21T01:17:03;17.83;;;7.63;;
77870;SDS011;67067;46.850;7.578;2023-02-21T01:18:22;15.95;;;7.60;;
77870;SDS011;67067;46.850;7.578;2023-02-21T01:19:41;16.98;;;7.68;;
77870;SDS011;67067;46.850;7.578;2023-02-21T01:21:01;15.85;;;7.28;;
77870;SDS011;67067;46.850;7.578;2023-02-21T01:22:22;17.05;;;7.00;;
77870;SDS011;67067;46.850;7.578;2023-02-21T01:23:41;17.20;;;8.13;;
77870;SDS011;67067;46.850;7.578;2023-02-21T01:25:01;16.08;;;7.35;;
77870;SDS011;67067;46.850;7.578;2023-02-21T01:26:22;17.17;;;7.35;;
77870;SDS011;67067;46.850;7.578;2023-02-21T01:27:41;14.15;;;6.93;;
77870;SDS011;67067;46.850;7.578;2023-02-21T01:29:00;17.65;;;8.23;;
77870;SDS011;67067;46.850;7.578;2023-02-21T01:30:20;16.60;;;7.10;;
77870;SDS011;67067;46.850;7.578;2023-02-21T01:31:38;16.33;;;7.15;;
77870;SDS011;67067;46.850;7.578;2023-02-21T01:32:57;14.93;;;6.75;;
77870;SDS011;67067;46.850;7.578;2023-02-21T01:34:17;16.30;;;6.78;;
77870;SDS011;67067;46.850;7.578;2023-02-21T01:35:36;15.73;;;7.50;;
77870;SDS011;67067;46.850;7.578;2023-02-21T01:36:55;12.57;;;6.50;;
77870;SDS011;67067;46.850;7.578;2023-02-21T01:38:14;14.48;;;7.30;;
77870;SDS011;67067;46.850;7.578;2023-02-21T01:39:33;15.52;;;7.65;;
77870;SDS011;67067;46.850;7.578;2023-02-21T01:40:54;17.45;;;7.65;;
77870;SDS011;67067;46.850;7.578;2023-02-21T01:42:15;14.63;;;7.50;;
77870;SDS011;67067;46.850;7.578;2023-02-21T01:43:36;14.13;;;6.88;;
77870;SDS011;67067;46.850;7.578;2023-02-21T01:46:39;16.50;;;7.50;;
77870;SDS011;67067;46.850;7.578;2023-02-21T01:47:58;15.05;;;6.63;;
77870;SDS011;67067;46.850;7.578;2023-02-21T01:49:17;15.10;;;6.60;;
77870;SDS011;67067;46.850;7.578;2023-02-21T01:50:38;14.10;;;7.15;;
77870;SDS011;67067;46.850;7.578;2023-02-21T01:51:57;14.50;;;7.05;;
77870;SDS011;67067;46.850;7.578;2023-02-21T01:53:20;13.65;;;7.28;;
77870;SDS011;67067;46.850;7.578;2023-02-21T01:54:42;13.63;;;6.93;;
77870;SDS011;67067;46.850;7.578;2023-02-21T01:56:05;15.52;;;7.03;;
77870;SDS011;67067;46.850;7.578;2023-02-21T01:57:25;15.35;;;7.05;;
77870;SDS011;67067;46.850;7.578;2023-02-21T01:58:44;18.20;;;8.48;;
77870;SDS011;67067;46.850;7.578;2023-02-21T02:00:07;16.67;;;7.32;;
77870;SDS011;67067;46.850;7.578;2023-02-21T02:01:32;15.55;;;7.88;;
77870;SDS011;67067;46.850;7.578;2023-02-21T02:02:59;13.57;;;6.90;;
77870;SDS011;67067;46.850;7.578;2023-02-21T02:04:22;11.07;;;6.82;;
77870;SDS011;67067;46.850;7.578;2023-02-21T02:05:42;17.48;;;7.20;;
77870;SDS011;67067;46.850;7.578;2023-02-21T02:07:06;15.05;;;7.38;;
77870;SDS011;67067;46.850;7.578;2023-02-21T02:08:26;16.23;;;7.60;;
77870;SDS011;67067;46.850;7.578;2023-02-21T02:09:48;13.30;;;6.78;;
77870;SDS011;67067;46.850;7.578;2023-02-21T02:11:31;12.48;;;6.57;;
77870;SDS011;67067;46.850;7.578;2023-02-21T02:13:19;13.27;;;6.47;;
77870;SDS011;67067;46.850;7.578;2023-02-21T02:16:23;14.07;;;7.38;;
77870;SDS011;67067;46.850;7.578;2023-02-21T02:17:16;15.10;;;6.85;;
77870;SDS011;67067;46.850;7.578;2023-02-21T02:21:30;15.60;;;7.50;;
77870;SDS011;67067;46.850;7.578;2023-02-21T02:22:51;17.42;;;7.38;;
77870;SDS011;67067;46.850;7.578;2023-02-21T02:25:17;15.30;;;7.13;;
77870;SDS011;67067;46.850;7.578;2023-02-21T02:27:47;15.35;;;7.15;;
77870;SDS011;67067;46.850;7.578;2023-02-21T02:31:57;15.05;;;6.75;;
77870;SDS011;67067;46.850;7.578;2023-02-21T02:35:13;11.45;;;6.13;;
77870;SDS011;67067;46.850;7.578;2023-02-21T02:36:59;16.50;;;7.13;;
77870;SDS011;67067;46.850;7.578;2023-02-21T02:39:11;13.77;;;6.75;;
77870;SDS011;67067;46.850;7.578;2023-02-21T02:40:26;12.10;;;6.40;;
77870;SDS011;67067;46.850;7.578;2023-02-21T02:43:21;14.43;;;6.35;;
77870;SDS011;67067;46.850;7.578;2023-02-21T02:44:34;12.25;;;6.50;;
77870;SDS011;67067;46.850;7.578;2023-02-21T02:45:43;13.63;;;6.10;;
77870;SDS011;67067;46.850;7.578;2023-02-21T02:46:48;14.32;;;7.05;;
77870;SDS011;67067;46.850;7.578;2023-02-21T02:47:54;16.48;;;6.95;;
77870;SDS011;67067;46.850;7.578;2023-02-21T02:49:21;14.55;;;6.60;;
77870;SDS011;67067;46.850;7.578;2023-02-21T02:50:24;14.77;;;5.82;;
77870;SDS011;67067;46.850;7.578;2023-02-21T02:51:27;13.55;;;6.53;;
77870;SDS011;67067;46.850;7.578;2023-02-21T02:52:31;14.13;;;6.95;;
77870;SDS011;67067;46.850;7.578;2023-02-21T02:53:34;16.20;;;7.35;;
77870;SDS011;67067;46.850;7.578;2023-02-21T02:54:35;13.57;;;6.60;;
77870;SDS011;67067;46.850;7.578;2023-02-21T02:56:46;12.60;;;6.82;;
77870;SDS011;67067;46.850;7.578;2023-02-21T02:57:47;13.40;;;6.47;;
77870;SDS011;67067;46.850;7.578;2023-02-21T02:58:59;13.65;;;6.57;;
77870;SDS011;67067;46.850;7.578;2023-02-21T03:00:06;10.75;;;6.00;;
77870;SDS011;67067;46.850;7.578;2023-02-21T03:04:17;12.93;;;6.70;;
77870;SDS011;67067;46.850;7.578;2023-02-21T03:08:02;13.23;;;6.50;;
77870;SDS011;67067;46.850;7.578;2023-02-21T03:09:15;14.75;;;6.97;;
77870;SDS011;67067;46.850;7.578;2023-02-21T03:10:36;13.98;;;6.38;;
77870;SDS011;67067;46.850;7.578;2023-02-21T03:11:58;12.30;;;6.57;;
77870;SDS011;67067;46.850;7.578;2023-02-21T03:13:04;14.20;;;6.15;;
77870;SDS011;67067;46.850;7.578;2023-02-21T03:14:16;11.25;;;5.68;;
77870;SDS011;67067;46.850;7.578;2023-02-21T03:15:20;12.25;;;6.32;;
77870;SDS011;67067;46.850;7.578;2023-02-21T03:17:58;10.60;;;5.68;;
77870;SDS011;67067;46.850;7.578;2023-02-21T03:19:07;10.68;;;5.80;;
77870;SDS011;67067;46.850;7.578;2023-02-21T03:20:12;11.93;;;6.10;;
77870;SDS011;67067;46.850;7.578;2023-02-21T03:21:22;11.98;;;5.85;;
77870;SDS011;67067;46.850;7.578;2023-02-21T03:22:27;10.25;;;5.32;;
77870;SDS011;67067;46.850;7.578;2023-02-21T03:23:30;10.10;;;5.70;;
77870;SDS011;67067;46.850;7.578;2023-02-21T03:24:33;9.02;;;5.50;;
77870;SDS011;67067;46.850;7.578;2023-02-21T03:25:36;10.25;;;5.55;;
77870;SDS011;67067;46.850;7.578;2023-02-21T03:26:39;9.32;;;5.63;;
77870;SDS011;67067;46.850;7.578;2023-02-21T03:28:17;13.55;;;6.18;;
77870;SDS011;67067;46.850;7.578;2023-02-21T03:29:19;14.00;;;6.68;;
77870;SDS011;67067;46.850;7.578;2023-02-21T03:30:20;12.77;;;6.22;;
77870;SDS011;67067;46.850;7.578;2023-02-21T03:31:25;13.50;;;6.22;;
77870;SDS011;67067;46.850;7.578;2023-02-21T03:32:32;14.00;;;5.95;;
77870;SDS011;67067;46.850;7.578;2023-02-21T03:33:37;10.35;;;5.60;;
77870;SDS011;67067;46.850;7.578;2023-02-21T03:34:41;10.30;;;6.07;;
77870;SDS011;67067;46.850;7.578;2023-02-21T03:35:45;13.95;;;6.03;;
77870;SDS011;67067;46.850;7.578;2023-02-21T03:37:49;15.15;;;6.90;;
77870;SDS011;67067;46.850;7.578;2023-02-21T03:38:53;16.05;;;6.68;;
77870;SDS011;67067;46.850;7.578;2023-02-21T03:39:54;14.50;;;6.30;;
77870;SDS011;67067;46.850;7.578;2023-02-21T03:40:55;16.10;;;7.43;;
77870;SDS011;67067;46.850;7.578;2023-02-21T03:41:56;17.48;;;7.05;;
77870;SDS011;67067;46.850;7.578;2023-02-21T03:42:57;13.33;;;6.70;;
77870;SDS011;67067;46.850;7.578;2023-02-21T03:44:02;13.18;;;6.50;;
77870;SDS011;67067;46.850;7.578;2023-02-21T03:45:03;12.47;;;6.20;;
77870;SDS011;67067;46.850;7.578;2023-02-21T03:46:04;15.73;;;5.88;;
77870;SDS011;67067;46.850;7.578;2023-02-21T03:47:04;15.20;;;6.77;;
77870;SDS011;67067;46.850;7.578;2023-02-21T03:48:07;13.03;;;6.23;;
77870;SDS011;67067;46.850;7.578;2023-02-21T03:49:10;11.13;;;5.47;;
77870;SDS011;67067;46.850;7.578;2023-02-21T03:50:10;13.93;;;6.27;;
77870;SDS011;67067;46.850;7.578;2023-02-21T03:51:16;12.07;;;5.97;;
77870;SDS011;67067;46.850;7.578;2023-02-21T03:52:16;9.47;;;5.73;;
77870;SDS011;67067;46.850;7.578;2023-02-21T03:53:17;13.85;;;6.18;;
77870;SDS011;67067;46.850;7.578;2023-02-21T03:54:19;15.13;;;6.30;;
77870;SDS011;67067;46.850;7.578;2023-02-21T03:55:23;10.32;;;6.22;;
77870;SDS011;67067;46.850;7.578;2023-02-21T03:56:24;11.50;;;6.30;;
77870;SDS011;67067;46.850;7.578;2023-02-21T03:57:37;14.65;;;6.25;;
77870;SDS011;67067;46.850;7.578;2023-02-21T03:58:39;13.43;;;6.32;;
77870;SDS011;67067;46.850;7.578;2023-02-21T03:59:42;14.68;;;6.60;;
77870;SDS011;67067;46.850;7.578;2023-02-21T04:00:43;15.50;;;7.20;;
77870;SDS011;67067;46.850;7.578;2023-02-21T04:01:44;14.75;;;6.93;;
77870;SDS011;67067;46.850;7.578;2023-02-21T04:02:44;15.57;;;7.10;;
77870;SDS011;67067;46.850;7.578;2023-02-21T04:03:55;15.25;;;6.85;;
77870;SDS011;67067;46.850;7.578;2023-02-21T04:04:56;16.20;;;7.77;;
77870;SDS011;67067;46.850;7.578;2023-02-21T04:05:58;15.55;;;7.28;;
77870;SDS011;67067;46.850;7.578;2023-02-21T04:06:59;15.02;;;7.22;;
77870;SDS011;67067;46.850;7.578;2023-02-21T04:08:00;14.95;;;7.00;;
77870;SDS011;67067;46.850;7.578;2023-02-21T04:09:01;14.23;;;7.17;;
77870;SDS011;67067;46.850;7.578;2023-02-21T04:10:02;13.60;;;6.72;;
77870;SDS011;67067;46.850;7.578;2023-02-21T04:11:11;17.23;;;7.35;;
77870;SDS011;67067;46.850;7.578;2023-02-21T04:12:11;13.73;;;7.20;;
77870;SDS011;67067;46.850;7.578;2023-02-21T04:13:15;13.48;;;6.85;;
77870;SDS011;67067;46.850;7.578;2023-02-21T04:14:19;16.17;;;7.60;;
77870;SDS011;67067;46.850;7.578;2023-02-21T04:15:19;16.00;;;7.33;;
77870;SDS011;67067;46.850;7.578;2023-02-21T04:16:20;15.63;;;7.27;;
77870;SDS011;67067;46.850;7.578;2023-02-21T04:17:22;13.95;;;6.82;;
77870;SDS011;67067;46.850;7.578;2023-02-21T04:18:25;18.60;;;7.70;;
77870;SDS011;67067;46.850;7.578;2023-02-21T04:19:28;13.75;;;6.50;;
77870;SDS011;67067;46.850;7.578;2023-02-21T04:20:29;13.18;;;6.65;;
77870;SDS011;67067;46.850;7.578;2023-02-21T04:21:31;12.82;;;6.93;;
77870;SDS011;67067;46.850;7.578;2023-02-21T04:22:33;15.63;;;6.70;;
77870;SDS011;67067;46.850;7.578;2023-02-21T04:23:34;12.43;;;7.03;;
77870;SDS011;67067;46.850;7.578;2023-02-21T04:25:36;13.10;;;5.82;;
77870;SDS011;67067;46.850;7.578;2023-02-21T04:26:46;12.68;;;6.53;;
77870;SDS011;67067;46.850;7.578;2023-02-21T04:27:47;15.07;;;6.83;;
77870;SDS011;67067;46.850;7.578;2023-02-21T04:28:48;14.30;;;6.50;;
77870;SDS011;67067;46.850;7.578;2023-02-21T04:29:49;13.63;;;6.53;;
77870;SDS011;67067;46.850;7.578;2023-02-21T04:30:50;17.50;;;7.20;;
77870;SDS011;67067;46.850;7.578;2023-02-21T04:31:50;11.13;;;6.33;;
77870;SDS011;67067;46.850;7.578;2023-02-21T04:32:51;13.50;;;6.47;;
77870;SDS011;67067;46.850;7.578;2023-02-21T04:33:52;11.77;;;6.57;;
77870;SDS011;67067;46.850;7.578;2023-02-21T04:34:56;13.30;;;6.25;;
77870;SDS011;67067;46.850;7.578;2023-02-21T04:36:00;11.30;;;6.00;;
77870;SDS011;67067;46.850;7.578;2023-02-21T04:37:13;11.68;;;6.28;;
77870;SDS011;67067;46.850;7.578;2023-02-21T04:38:15;11.27;;;5.80;;
77870;SDS011;67067;46.850;7.578;2023-02-21T04:39:18;12.18;;;5.80;;
77870;SDS011;67067;46.850;7.578;2023-02-21T04:40:21;13.38;;;5.55;;
77870;SDS011;67067;46.850;7.578;2023-02-21T04:41:22;11.17;;;5.63;;
77870;SDS011;67067;46.850;7.578;2023-02-21T04:42:25;12.40;;;6.32;;
77870;SDS011;67067;46.850;7.578;2023-02-21T04:43:26;11.73;;;6.23;;
77870;SDS011;67067;46.850;7.578;2023-02-21T04:44:26;14.07;;;6.73;;
77870;SDS011;67067;46.850;7.578;2023-02-21T04:45:27;15.60;;;6.47;;
77870;SDS011;67067;46.850;7.578;2023-02-21T04:46:28;12.73;;;6.00;;
77870;SDS011;67067;46.850;7.578;2023-02-21T04:47:28;13.53;;;6.03;;
77870;SDS011;67067;46.850;7.578;2023-02-21T04:48:31;13.88;;;6.43;;
77870;SDS011;67067;46.850;7.578;2023-02-21T04:49:31;11.77;;;6.17;;
77870;SDS011;67067;46.850;7.578;2023-02-21T04:50:32;9.90;;;6.03;;
77870;SDS011;67067;46.850;7.578;2023-02-21T04:51:33;10.70;;;5.93;;
77870;SDS011;67067;46.850;7.578;2023-02-21T04:52:33;10.80;;;5.97;;
77870;SDS011;67067;46.850;7.578;2023-02-21T04:53:34;11.77;;;5.93;;
77870;SDS011;67067;46.850;7.578;2023-02-21T04:54:34;11.47;;;5.70;;
77870;SDS011;67067;46.850;7.578;2023-02-21T04:55:39;10.68;;;5.65;;
77870;SDS011;67067;46.850;7.578;2023-02-21T04:56:43;11.10;;;6.15;;
77870;SDS011;67067;46.850;7.578;2023-02-21T04:57:46;12.50;;;6.00;;
77870;SDS011;67067;46.850;7.578;2023-02-21T04:58:46;11.23;;;6.03;;
77870;SDS011;67067;46.850;7.578;2023-02-21T04:59:47;11.68;;;6.13;;
77870;SDS011;67067;46.850;7.578;2023-02-21T05:00:48;11.23;;;5.90;;
77870;SDS011;67067;46.850;7.578;2023-02-21T05:01:51;13.27;;;5.82;;
77870;SDS011;67067;46.850;7.578;2023-02-21T05:02:51;9.63;;;5.63;;
77870;SDS011;67067;46.850;7.578;2023-02-21T05:03:52;11.33;;;5.77;;
77870;SDS011;67067;46.850;7.578;2023-02-21T05:04:52;12.27;;;6.07;;
77870;SDS011;67067;46.850;7.578;2023-02-21T05:05:53;12.23;;;5.63;;
77870;SDS011;67067;46.850;7.578;2023-02-21T05:06:53;9.33;;;5.00;;
77870;SDS011;67067;46.850;7.578;2023-02-21T05:07:54;9.87;;;5.40;;
77870;SDS011;67067;46.850;7.578;2023-02-21T05:08:57;10.35;;;5.15;;
77870;SDS011;67067;46.850;7.578;2023-02-21T05:09:58;12.13;;;5.63;;
77870;SDS011;67067;46.850;7.578;2023-02-21T05:10:59;8.70;;;4.90;;
77870;SDS011;67067;46.850;7.578;2023-02-21T05:11:59;12.10;;;6.50;;
77870;SDS011;67067;46.850;7.578;2023-02-21T05:13:00;11.17;;;5.60;;
77870;SDS011;67067;46.850;7.578;2023-02-21T05:14:00;11.03;;;5.80;;
77870;SDS011;67067;46.850;7.578;2023-02-21T05:15:01;11.53;;;5.93;;
77870;SDS011;67067;46.850;7.578;2023-02-21T05:16:07;7.30;;;4.70;;
77870;SDS011;67067;46.850;7.578;2023-02-21T05:17:07;10.60;;;5.47;;
77870;SDS011;67067;46.850;7.578;2023-02-21T05:18:08;9.50;;;5.20;;
77870;SDS011;67067;46.850;7.578;2023-02-21T05:19:08;10.67;;;5.50;;
77870;SDS011;67067;46.850;7.578;2023-02-21T05:20:09;10.02;;;5.28;;
77870;SDS011;67067;46.850;7.578;2023-02-21T05:21:10;8.35;;;4.70;;
77870;SDS011;67067;46.850;7.578;2023-02-21T05:22:11;9.53;;;5.10;;
77870;SDS011;67067;46.850;7.578;2023-02-21T05:23:11;9.37;;;5.30;;
77870;SDS011;67067;46.850;7.578;2023-02-21T05:24:16;10.15;;;5.55;;
77870;SDS011;67067;46.850;7.578;2023-02-21T05:25:20;9.60;;;5.27;;
77870;SDS011;67067;46.850;7.578;2023-02-21T05:26:23;11.82;;;5.53;;
77870;SDS011;67067;46.850;7.578;2023-02-21T05:27:26;9.35;;;5.30;;
77870;SDS011;67067;46.850;7.578;2023-02-21T05:28:30;11.25;;;5.45;;
77870;SDS011;67067;46.850;7.578;2023-02-21T05:29:31;10.20;;;5.35;;
77870;SDS011;67067;46.850;7.578;2023-02-21T05:32:32;10.13;;;5.53;;
77870;SDS011;67067;46.850;7.578;2023-02-21T05:33:32;13.03;;;5.93;;
77870;SDS011;67067;46.850;7.578;2023-02-21T05:34:35;12.25;;;6.03;;
77870;SDS011;67067;46.850;7.578;2023-02-21T05:35:36;10.77;;;5.50;;
77870;SDS011;67067;46.850;7.578;2023-02-21T05:36:36;9.73;;;5.43;;
77870;SDS011;67067;46.850;7.578;2023-02-21T05:37:37;14.70;;;6.17;;
77870;SDS011;67067;46.850;7.578;2023-02-21T05:38:44;11.37;;;6.20;;
77870;SDS011;67067;46.850;7.578;2023-02-21T05:39:50;10.65;;;5.78;;
77870;SDS011;67067;46.850;7.578;2023-02-21T05:40:50;10.17;;;6.00;;
77870;SDS011;67067;46.850;7.578;2023-02-21T05:41:51;12.27;;;5.90;;
77870;SDS011;67067;46.850;7.578;2023-02-21T05:42:54;15.13;;;5.73;;
77870;SDS011;67067;46.850;7.578;2023-02-21T05:43:54;10.02;;;5.47;;
77870;SDS011;67067;46.850;7.578;2023-02-21T05:44:55;8.87;;;5.20;;
77870;SDS011;67067;46.850;7.578;2023-02-21T05:45:55;10.07;;;5.13;;
77870;SDS011;67067;46.850;7.578;2023-02-21T05:46:56;11.77;;;5.30;;
77870;SDS011;67067;46.850;7.578;2023-02-21T05:47:56;12.30;;;5.13;;
77870;SDS011;67067;46.850;7.578;2023-02-21T05:49:00;8.63;;;4.65;;
77870;SDS011;67067;46.850;7.578;2023-02-21T05:50:04;9.35;;;4.80;;
77870;SDS011;67067;46.850;7.578;2023-02-21T05:51:04;10.00;;;4.88;;
77870;SDS011;67067;46.850;7.578;2023-02-21T05:52:05;9.07;;;5.27;;
77870;SDS011;67067;46.850;7.578;2023-02-21T05:53:06;8.68;;;4.70;;
77870;SDS011;67067;46.850;7.578;2023-02-21T05:54:12;9.50;;;4.95;;
77870;SDS011;67067;46.850;7.578;2023-02-21T05:55:15;8.43;;;4.50;;
77870;SDS011;67067;46.850;7.578;2023-02-21T05:56:16;10.13;;;4.90;;
77870;SDS011;67067;46.850;7.578;2023-02-21T05:57:20;7.45;;;4.30;;
77870;SDS011;67067;46.850;7.578;2023-02-21T05:58:22;9.65;;;5.38;;
77870;SDS011;67067;46.850;7.578;2023-02-21T05:59:25;7.38;;;4.40;;
77870;SDS011;67067;46.850;7.578;2023-02-21T06:00:31;7.97;;;4.68;;
77870;SDS011;67067;46.850;7.578;2023-02-21T06:01:32;10.20;;;4.80;;
77870;SDS011;67067;46.850;7.578;2023-02-21T06:02:34;14.25;;;5.03;;
77870;SDS011;67067;46.850;7.578;2023-02-21T06:03:35;10.83;;;5.07;;
77870;SDS011;67067;46.850;7.578;2023-02-21T06:04:35;7.33;;;4.90;;
77870;SDS011;67067;46.850;7.578;2023-02-21T06:05:36;8.90;;;5.17;;
77870;SDS011;67067;46.850;7.578;2023-02-21T06:06:37;11.03;;;5.07;;
77870;SDS011;67067;46.850;7.578;2023-02-21T06:07:37;11.18;;;4.93;;
77870;SDS011;67067;46.850;7.578;2023-02-21T06:08:47;7.93;;;4.70;;
77870;SDS011;67067;46.850;7.578;2023-02-21T06:09:48;6.47;;;4.63;;
77870;SDS011;67067;46.850;7.578;2023-02-21T06:10:49;12.13;;;5.10;;
77870;SDS011;67067;46.850;7.578;2023-02-21T06:11:50;11.73;;;4.80;;
77870;SDS011;67067;46.850;7.578;2023-02-21T06:12:50;8.00;;;4.83;;
77870;SDS011;67067;46.850;7.578;2023-02-21T06:13:51;9.13;;;4.60;;
77870;SDS011;67067;46.850;7.578;2023-02-21T06:15:53;10.50;;;4.65;;
77870;SDS011;67067;46.850;7.578;2023-02-21T06:16:54;8.23;;;4.85;;
77870;SDS011;67067;46.850;7.578;2023-02-21T06:17:56;9.70;;;5.15;;
77870;SDS011;67067;46.850;7.578;2023-02-21T06:18:57;9.87;;;5.17;;
77870;SDS011;67067;46.850;7.578;2023-02-21T06:19:57;7.37;;;4.57;;
77870;SDS011;67067;46.850;7.578;2023-02-21T06:20:58;11.60;;;4.57;;
77870;SDS011;67067;46.850;7.578;2023-02-21T06:22:03;8.98;;;4.85;;
77870;SDS011;67067;46.850;7.578;2023-02-21T06:23:04;9.50;;;5.00;;
77870;SDS011;67067;46.850;7.578;2023-02-21T06:24:04;9.53;;;4.93;;
77870;SDS011;67067;46.850;7.578;2023-02-21T06:25:05;12.88;;;5.55;;
77870;SDS011;67067;46.850;7.578;2023-02-21T06:26:07;10.55;;;5.40;;
77870;SDS011;67067;46.850;7.578;2023-02-21T06:27:09;13.05;;;5.65;;
77870;SDS011;67067;46.850;7.578;2023-02-21T06:28:10;14.27;;;6.07;;
77870;SDS011;67067;46.850;7.578;2023-02-21T06:29:13;11.98;;;5.57;;
77870;SDS011;67067;46.850;7.578;2023-02-21T06:30:13;9.73;;;5.20;;
77870;SDS011;67067;46.850;7.578;2023-02-21T06:31:18;9.88;;;4.78;;
77870;SDS011;67067;46.850;7.578;2023-02-21T06:32:22;9.73;;;5.35;;
77870;SDS011;67067;46.850;7.578;2023-02-21T06:33:22;12.23;;;5.40;;
77870;SDS011;67067;46.850;7.578;2023-02-21T06:34:23;14.43;;;6.07;;
77870;SDS011;67067;46.850;7.578;2023-02-21T06:35:24;13.87;;;5.80;;
77870;SDS011;67067;46.850;7.578;2023-02-21T06:36:27;19.70;;;6.40;;
77870;SDS011;67067;46.850;7.578;2023-02-21T06:37:28;12.80;;;6.20;;
77870;SDS011;67067;46.850;7.578;2023-02-21T06:38:28;13.00;;;5.83;;
77870;SDS011;67067;46.850;7.578;2023-02-21T06:39:29;12.37;;;5.73;;
77870;SDS011;67067;46.850;7.578;2023-02-21T06:40:29;10.30;;;5.43;;
77870;SDS011;67067;46.850;7.578;2023-02-21T06:41:32;13.00;;;5.82;;
77870;SDS011;67067;46.850;7.578;2023-02-21T06:42:33;13.90;;;5.67;;
77870;SDS011;67067;46.850;7.578;2023-02-21T06:43:35;14.15;;;5.75;;
77870;SDS011;67067;46.850;7.578;2023-02-21T06:44:36;11.18;;;5.03;;
77870;SDS011;67067;46.850;7.578;2023-02-21T06:45:39;12.53;;;5.83;;
77870;SDS011;67067;46.850;7.578;2023-02-21T06:46:40;10.00;;;5.63;;
77870;SDS011;67067;46.850;7.578;2023-02-21T06:47:42;9.43;;;5.38;;
77870;SDS011;67067;46.850;7.578;2023-02-21T06:48:44;11.43;;;5.88;;
77870;SDS011;67067;46.850;7.578;2023-02-21T06:49:47;12.55;;;5.60;;
77870;SDS011;67067;46.850;7.578;2023-02-21T06:50:48;11.83;;;5.67;;
77870;SDS011;67067;46.850;7.578;2023-02-21T06:51:48;12.10;;;6.03;;
77870;SDS011;67067;46.850;7.578;2023-02-21T06:52:49;11.30;;;6.03;;
77870;SDS011;67067;46.850;7.578;2023-02-21T06:53:52;14.13;;;6.32;;
77870;SDS011;67067;46.850;7.578;2023-02-21T06:54:52;12.83;;;6.67;;
77870;SDS011;67067;46.850;7.578;2023-02-21T06:55:53;13.10;;;5.87;;
77870;SDS011;67067;46.850;7.578;2023-02-21T06:56:53;12.20;;;6.23;;
77870;SDS011;67067;46.850;7.578;2023-02-21T06:57:54;11.70;;;5.57;;
77870;SDS011;67067;46.850;7.578;2023-02-21T06:58:55;14.97;;;6.27;;
77870;SDS011;67067;46.850;7.578;2023-02-21T06:59:59;13.50;;;6.03;;
77870;SDS011;67067;46.850;7.578;2023-02-21T07:00:59;15.33;;;6.63;;
77870;SDS011;67067;46.850;7.578;2023-02-21T07:02:00;17.90;;;6.67;;
77870;SDS011;67067;46.850;7.578;2023-02-21T07:04:02;16.25;;;6.40;;
77870;SDS011;67067;46.850;7.578;2023-02-21T07:05:03;13.87;;;6.10;;
77870;SDS011;67067;46.850;7.578;2023-02-21T07:06:04;17.95;;;6.90;;
77870;SDS011;67067;46.850;7.578;2023-02-21T07:07:07;15.40;;;7.18;;
77870;SDS011;67067;46.850;7.578;2023-02-21T07:08:07;13.57;;;6.47;;
77870;SDS011;67067;46.850;7.578;2023-02-21T07:09:07;17.27;;;7.00;;
77870;SDS011;67067;46.850;7.578;2023-02-21T07:10:08;14.37;;;7.13;;
77870;SDS011;67067;46.850;7.578;2023-02-21T07:11:15;14.00;;;6.70;;
77870;SDS011;67067;46.850;7.578;2023-02-21T07:12:17;18.95;;;7.20;;
77870;SDS011;67067;46.850;7.578;2023-02-21T07:13:18;15.57;;;7.30;;
77870;SDS011;67067;46.850;7.578;2023-02-21T07:14:18;16.33;;;6.50;;
77870;SDS011;67067;46.850;7.578;2023-02-21T07:15:19;21.93;;;7.80;;